x

West Erie - 16 Nm Nw Of Lorain, Oh (45005) Wave Buoy

9:50am - Wed 27th Aug 2014 All times are CDT. -5 hours from GMT.

  • Sig Wave height 1.3ft
  • Swell Direction
  • Peak Period 3s
  • Average Period 3s
  • Wind
    13mph, 16mph gusts
  • Sea Temp 74°f
  • Air Temp 70°f
  • Sea Pressure 1019.2mb
  • West Erie - 16 Nm Nw Of Lorain, Oh
  • West Erie - 16 Nm Nw Of Lorain, Oh

More Historic Weather Station data

Upgrade to MSW Pro to gain access to the past 30 days of data for over 8000 Wavebouys and Weather Stations around the globe.

Join Pro

Comparision Forecast

View Surf forecast
   
Wed 08/27 9:50am 1.3ft 3s 3s 13 16 mph 1019.2mb 74f 70f
8:50am 1ft 3s 3s 16
mph
1018.8mb 74f 70f
7:50am 0.7ft  -  2s 11 13 mph 1018.8mb 74f 71f
6:50am 0.7ft  -  2s 9
mph
1018.7mb 74f 71f
5:50am 0.7ft  -  3s 7
mph
1018.3mb 74f 73f
4:50am 0.7ft  -  3s 11
mph
1018mb 74f 72f
3:50am 0.7ft  -  3s 7 9 mph 1018mb 74f 72f
2:50am 1ft 3s 3s 13
mph
1018.1mb 74f 73f
1:50am 0.7ft  -  2s 9 11 mph 1018.1mb 74f 74f
12:50am 0.7ft  -  3s 7 9 mph 1018mb 74f 74f
Tue 08/26 11:50pm 0.7ft  -  3s 7 9 mph 1017.7mb 74f 75f
10:50pm 1ft 2s 3s 9 11 mph 1017.2mb 74f 76f
9:50pm 1ft 2s 3s 13 18 mph 1017mb 74f 75f
8:50pm 1ft 3s 3s 11 16 mph 1017mb 74f 75f
7:50pm 1.3ft 4s 3s 13 18 mph 1016.7mb 75f 75f
6:50pm 1.6ft 3s 3s 7 11 mph 1017.1mb 75f 74f
5:50pm 0.3ft  -  4s 25 29 mph 1018.1mb 76f 71f
4:50pm 0.3ft  -  3s 2
mph
1017.2mb 79f 82f
3:50pm 0.3ft  -  3s 4
mph
1017.1mb 78f 81f
2:50pm 0.3ft  -  2s 2 4 mph 1017.6mb 78f 81f
1:50pm 0.3ft  -  3s 4
mph
1018.2mb 77f 78f
12:50pm 0.7ft  -  3s 7
mph
1018.5mb 75f 77f
11:50am 0.7ft  -  3s 7 9 mph 1019.4mb 74f 76f
10:50am 1ft 3s 3s 9 11 mph 1019.7mb 74f 76f
9:50am 1.3ft 3s 3s 11 13 mph 1019.6mb 74f 75f
8:50am 1.6ft 3s 3s 13 16 mph 1019.2mb 73f 74f
7:50am 1.6ft 3s 3s 16 18 mph 1019mb 73f 74f
6:50am 1.3ft 3s 3s 13 18 mph 1018.6mb 73f 74f
5:50am 1.3ft 3s 3s 13 18 mph 1018.2mb 74f 74f
4:50am 1ft 3s 3s 13 16 mph 1017.9mb 74f 74f
3:50am 1.3ft 3s 3s 13 16 mph 1018.1mb 74f 74f
2:50am 1ft 3s 3s 13 16 mph 1018.1mb 74f 74f
1:50am 0.7ft  -  3s 13 16 mph 1018.1mb 74f 74f
12:50am 0.7ft  -  3s 11
mph
1018.1mb 74f 75f
Mon 08/25 11:50pm 0.7ft  -  3s 11
mph
1017.9mb 74f 75f
10:50pm 0.7ft  -  3s 9
mph
1017.6mb 74f 75f
9:50pm 0.7ft  -  3s 9 11 mph 1017.7mb 74f 74f
8:50pm 1ft 3s 3s 9
mph
1017.9mb 74f 74f
7:50pm 1ft 3s 3s 11
mph
1017.6mb 74f 74f
6:50pm 1ft 3s 3s 9 11 mph 1017.8mb 75f 75f
5:50pm 1ft 4s 3s 13
mph
1017.7mb 75f 75f
4:50pm 0.7ft  -  3s 11 13 mph 1018.1mb 75f 74f
3:50pm 0.7ft  -  3s 11
mph
1018.9mb 75f 74f
2:50pm 0.7ft  -  3s 9
mph
1018.8mb 75f 74f
1:50pm 0.7ft  -  3s 7
mph
1018.9mb 75f 74f
12:50pm 1ft 4s 4s 7 9 mph 1019.2mb 74f 74f
11:50am 1ft 4s 3s 4
mph
1019.8mb 74f 73f
10:50am 1ft 4s 3s 7 9 mph 1019.8mb 73f 72f
9:50am 1.3ft 4s 3s 9 11 mph 1019.7mb 73f 71f
8:50am 1.3ft 5s 3s 11 13 mph 1019.5mb 73f 70f
7:50am 1.6ft 5s 4s 9 11 mph 1019.7mb 73f 70f
6:50am 1.6ft 5s 3s 9 11 mph 1019.5mb 73f 70f
5:50am 2ft 5s 4s 13 16 mph 1018.8mb 73f 70f
4:50am 2ft 5s 4s 13 16 mph 1018.2mb 73f 71f
3:50am 2.5ft 5s 4s 13 16 mph 1017.8mb 73f 72f
2:50am 2.5ft 5s 4s 16 20 mph 1017.9mb 73f 72f
1:50am 2.5ft 5s 4s 16 18 mph 1018.2mb 73f 73f
12:50am 2.5ft 5s 4s 13 16 mph 1018.8mb 73f 74f
Sun 08/24 11:50pm 3ft 5s 4s 13 16 mph 1018.8mb 73f 73f
10:50pm  -   -   -  13 16 mph 1018.7mb 73f 73f
9:50pm 3ft 5s 4s 16 18 mph 1018.3mb 73f 73f
8:50pm 3ft 5s 4s 18 20 mph 1018.1mb 73f 73f
7:50pm 3.5ft 5s 4s 18 20 mph 1017.9mb 73f 73f
6:50pm 3ft 5s 4s 18 20 mph 1017.7mb 73f 73f
5:50pm 3ft 4s 4s 18 22 mph 1017.6mb 74f 73f
4:50pm 2.5ft 5s 4s 18 20 mph 1017.6mb 74f 73f
3:50pm 2.5ft 4s 4s 18 20 mph 1017.8mb 74f 73f
2:50pm 2ft 5s 4s 16 18 mph 1018.2mb 74f 72f
1:50pm 1.6ft 5s 4s 13 16 mph 1018.8mb 74f 72f
12:50pm 1.6ft 5s 4s 13 16 mph 1019mb 74f 71f
11:50am 1.6ft 5s 4s 11
mph
1019.2mb 73f 71f
10:50am 1.6ft 5s 4s 9 11 mph 1019.3mb 73f 71f
9:50am  -   -   -  9 11 mph 1019.3mb 73f 71f
8:50am 2ft 5s 4s 11
mph
1019mb 73f 71f
7:50am 2ft 5s 4s 11 13 mph 1018.9mb 73f 71f
6:50am 2.5ft 5s 4s 9 11 mph 1018.6mb 73f 71f
5:50am 2.5ft 6s 4s 4 7 mph 1018mb 73f 70f
4:50am 2.5ft 6s 4s 11 13 mph 1017.3mb 73f 71f
3:50am 2.5ft 5s 4s 9 13 mph 1017.1mb 73f 71f
2:50am 3ft 6s 4s 11 13 mph 1017.3mb 73f 71f
1:50am 3.5ft 5s 4s 13 16 mph 1017.5mb 73f 72f
12:50am 3.5ft 5s 4s 16 18 mph 1017.5mb 73f 71f
Sat 08/23 11:50pm 3.5ft 5s 4s 18 20 mph 1017.2mb 74f 72f
10:50pm 3.5ft 5s 4s 18 20 mph 1017.3mb 74f 72f
9:50pm 3.5ft 5s 4s 20 25 mph 1017.2mb 74f 72f
8:50pm 3ft 4s 4s 18 22 mph 1017.3mb 74f 72f
7:50pm 2.5ft 5s 4s 18 22 mph 1017.1mb 74f 72f
6:50pm 3ft 5s 4s 16 18 mph 1017mb 74f 72f
5:50pm 2.5ft 4s 4s 18 20 mph 1016.4mb 74f 72f
4:50pm 2ft 4s 4s 18 20 mph 1016.7mb 74f 72f
3:50pm 2ft 4s 3s 16 18 mph 1017.5mb 74f 72f